Time;durP1;ratioP1;P1;durP2;ratioP2;P2;SDS_P1;SDS_P2;PMS_P1;PMS_P2;Temp;Humidity;BMP_temperature;BMP_pressure;BME280_temperature;BME280_humidity;BME280_pressure;Samples;Min_cycle;Max_cycle;Signal;HPM_P1;HPM_P2
2021/12/13 00:00:31;;;;;;;;;;;23.10;28.40;;;;;;5163912;27;19923;-57
2021/12/13 00:02:57;;;;;;;;;;;23.10;28.50;;;;;;5170232;27;20021;-56
2021/12/13 00:05:23;;;;;;;;;;;23.10;28.70;;;;;;5164111;27;19929;-53
2021/12/13 00:07:56;;;;;;;;;;;23.00;28.90;;;;;;5164242;27;20362;-53
2021/12/13 00:10:22;;;;;;;;;;;23.20;28.80;;;;;;5169417;27;19922;-53
2021/12/13 00:12:56;;;;;;;;;;;23.20;28.90;;;;;;5145251;27;20429;-59
2021/12/13 00:15:32;;;;;;;;;;;23.20;28.90;;;;;;5148930;27;19944;-58
2021/12/13 00:17:57;;;;;;;;;;;23.10;29.10;;;;;;5150449;27;19922;-55
2021/12/13 00:20:28;;;;;;;;;;;23.20;29.00;;;;;;5164271;27;20365;-55
2021/12/13 00:22:59;;;;;;;;;;;23.20;29.00;;;;;;5169269;27;19922;-58
2021/12/13 00:25:25;;;;;;;;;;;23.10;29.10;;;;;;5163966;27;19930;-55
2021/12/13 00:28:13;;;;;;;;;;;23.00;29.30;;;;;;5163488;27;20402;-55
2021/12/13 00:30:54;;;;;;;;;;;23.00;29.30;;;;;;5150660;27;19923;-55
2021/12/13 00:33:26;;;;;;;;;;;23.00;29.40;;;;;;5166642;27;20039;-57
2021/12/13 00:35:53;;;;;;;;;;;23.10;29.30;;;;;;5162908;27;19983;-52
2021/12/13 00:38:20;;;;;;;;;;;23.10;29.40;;;;;;5134248;27;19929;-53
2021/12/13 00:40:47;;;;;;;;;;;23.10;29.40;;;;;;5163557;27;19927;-53
2021/12/13 00:43:14;;;;;;;;;;;23.10;29.30;;;;;;5163513;27;19944;-52
2021/12/13 00:45:47;;;;;;;;;;;23.10;29.30;;;;;;5147723;27;20493;-52
2021/12/13 00:48:13;;;;;;;;;;;23.20;29.30;;;;;;5163288;27;19923;-57
2021/12/13 00:50:44;;;;;;;;;;;22.90;29.60;;;;;;5128890;27;20021;-55
2021/12/13 00:53:10;;;;;;;;;;;22.80;29.90;;;;;;5167853;27;19922;-55
2021/12/13 00:55:38;;;;;;;;;;;22.90;29.70;;;;;;5130157;27;20003;-55
2021/12/13 00:58:03;;;;;;;;;;;22.90;29.80;;;;;;5164746;27;20603;-58
2021/12/13 01:00:32;;;;;;;;;;;22.80;29.90;;;;;;5167950;27;19923;-57
2021/12/13 01:03:02;;;;;;;;;;;22.90;29.80;;;;;;5163277;27;20342;-55
2021/12/13 01:05:28;;;;;;;;;;;22.90;29.90;;;;;;5168494;27;19923;-54
2021/12/13 01:07:54;;;;;;;;;;;22.90;30.00;;;;;;5162805;27;19935;-53
2021/12/13 01:10:41;;;;;;;;;;;23.00;29.90;;;;;;5162860;27;19933;-55
2021/12/13 01:13:12;;;;;;;;;;;23.00;29.90;;;;;;5167799;27;19933;-57
2021/12/13 01:15:44;;;;;;;;;;;23.10;29.90;;;;;;5163215;27;19926;-53
2021/12/13 01:18:29;;;;;;;;;;;23.00;30.00;;;;;;5162970;27;19929;-52
2021/12/13 01:21:14;;;;;;;;;;;23.10;30.00;;;;;;5168366;27;19929;-53
2021/12/13 01:23:50;;;;;;;;;;;23.10;30.20;;;;;;5164614;27;19923;-54
2021/12/13 01:28:50;;;;;;;;;;;23.10;30.20;;;;;;5168019;27;20009;-53
2021/12/13 01:31:17;;;;;;;;;;;23.10;30.20;;;;;;5162266;27;19922;-49
2021/12/13 01:33:45;;;;;;;;;;;23.10;30.20;;;;;;5162661;27;20055;-54
2021/12/13 01:36:12;;;;;;;;;;;23.20;30.10;;;;;;5168293;27;19922;-58
2021/12/13 01:38:48;;;;;;;;;;;23.00;30.40;;;;;;5162582;27;19933;-57
2021/12/13 01:41:16;;;;;;;;;;;23.00;30.60;;;;;;5162623;27;19975;-53
2021/12/13 01:43:46;;;;;;;;;;;23.00;30.50;;;;;;5168072;27;19922;-54
2021/12/13 01:46:12;;;;;;;;;;;23.10;30.50;;;;;;5162132;27;20067;-55
2021/12/13 01:48:39;;;;;;;;;;;23.10;30.50;;;;;;5162333;27;20303;-53
2021/12/13 01:51:07;;;;;;;;;;;23.00;30.60;;;;;;5167661;27;19979;-51
2021/12/13 01:53:35;;;;;;;;;;;23.00;30.60;;;;;;5162785;27;20391;-56
2021/12/13 01:56:09;;;;;;;;;;;23.00;30.60;;;;;;5166107;27;20382;-57
2021/12/13 01:58:38;;;;;;;;;;;23.10;30.50;;;;;;5167737;27;19926;-51
2021/12/13 02:01:11;;;;;;;;;;;23.10;30.50;;;;;;5144112;27;19933;-53
2021/12/13 02:03:42;;;;;;;;;;;23.20;30.50;;;;;;5167850;27;20017;-55
2021/12/13 02:06:08;;;;;;;;;;;23.10;30.50;;;;;;5164347;27;19933;-58
2021/12/13 02:08:34;;;;;;;;;;;23.10;30.60;;;;;;5166083;27;19927;-56
2021/12/13 02:11:00;;;;;;;;;;;23.00;30.70;;;;;;5172111;27;19930;-54
2021/12/13 02:13:28;;;;;;;;;;;23.10;30.50;;;;;;5166548;27;19930;-54
2021/12/13 02:18:39;;;;;;;;;;;23.10;30.50;;;;;;5168234;27;19949;-53
2021/12/13 02:21:17;;;;;;;;;;;23.10;30.50;;;;;;5166019;27;20365;-55
2021/12/13 02:23:44;;;;;;;;;;;23.10;30.60;;;;;;5165806;27;19922;-54
2021/12/13 02:26:10;;;;;;;;;;;23.20;30.50;;;;;;5171023;27;19940;-52
2021/12/13 02:28:37;;;;;;;;;;;23.20;30.50;;;;;;5166203;27;19923;-55
2021/12/13 02:31:07;;;;;;;;;;;23.10;30.50;;;;;;5166316;27;19922;-57
2021/12/13 02:33:43;;;;;;;;;;;23.10;30.50;;;;;;5171560;27;20283;-54
2021/12/13 02:36:11;;;;;;;;;;;23.10;30.60;;;;;;5166014;27;20030;-52
2021/12/13 02:38:37;;;;;;;;;;;23.10;30.70;;;;;;5169393;27;19926;-56
2021/12/13 02:41:03;;;;;;;;;;;23.20;30.70;;;;;;5184440;27;20348;-53
2021/12/13 02:43:30;;;;;;;;;;;23.20;30.70;;;;;;5165590;27;19923;-52
2021/12/13 02:45:57;;;;;;;;;;;23.20;30.60;;;;;;5170920;27;20013;-57
2021/12/13 02:48:24;;;;;;;;;;;23.20;30.70;;;;;;5166083;27;19922;-53
2021/12/13 02:50:55;;;;;;;;;;;23.10;30.80;;;;;;5165761;27;19935;-54
2021/12/13 02:53:23;;;;;;;;;;;23.20;30.90;;;;;;5171339;27;19959;-54
2021/12/13 02:55:49;;;;;;;;;;;23.10;30.90;;;;;;5165684;27;20386;-56
2021/12/13 02:58:16;;;;;;;;;;;23.20;30.80;;;;;;5165377;27;20190;-54
2021/12/13 03:00:48;;;;;;;;;;;23.10;30.90;;;;;;5170621;27;19927;-53
2021/12/13 03:03:15;;;;;;;;;;;23.00;31.00;;;;;;5164995;27;20382;-57
2021/12/13 03:05:42;;;;;;;;;;;23.10;30.90;;;;;;5169646;27;19927;-56
2021/12/13 03:08:10;;;;;;;;;;;23.00;31.00;;;;;;5167705;27;20456;-55
2021/12/13 03:10:37;;;;;;;;;;;23.10;30.80;;;;;;5165569;27;19922;-56
2021/12/13 03:13:03;;;;;;;;;;;23.10;30.70;;;;;;5170788;27;19927;-55
2021/12/13 03:15:30;;;;;;;;;;;23.10;30.70;;;;;;5165358;27;20385;-52
2021/12/13 03:17:58;;;;;;;;;;;23.20;30.70;;;;;;5145751;27;19927;-62
2021/12/13 03:20:24;;;;;;;;;;;23.20;30.60;;;;;;5170341;27;20010;-56
2021/12/13 03:23:08;;;;;;;;;;;22.90;31.10;;;;;;5164626;27;19922;-55
2021/12/13 03:25:40;;;;;;;;;;;23.00;30.80;;;;;;5165498;27;19931;-55
2021/12/13 03:28:25;;;;;;;;;;;23.00;30.80;;;;;;5170379;27;20294;-55
2021/12/13 03:30:56;;;;;;;;;;;23.10;30.70;;;;;;5164947;27;19923;-55
2021/12/13 03:33:31;;;;;;;;;;;23.10;30.70;;;;;;5146189;27;19927;-55
2021/12/13 03:35:57;;;;;;;;;;;23.10;30.60;;;;;;5170167;27;19922;-57
2021/12/13 03:38:43;;;;;;;;;;;23.20;30.60;;;;;;5164543;27;19923;-53
2021/12/13 03:41:10;;;;;;;;;;;23.00;30.70;;;;;;5163596;27;20021;-52
2021/12/13 03:43:37;;;;;;;;;;;23.20;30.40;;;;;;5170334;27;19923;-52
2021/12/13 03:46:05;;;;;;;;;;;23.20;30.40;;;;;;5164626;27;19944;-55
2021/12/13 03:48:31;;;;;;;;;;;23.30;30.20;;;;;;5165427;27;19949;-61
2021/12/13 03:50:58;;;;;;;;;;;23.10;30.40;;;;;;5169886;27;20401;-54
2021/12/13 03:53:25;;;;;;;;;;;23.00;30.50;;;;;;5164670;27;19923;-55
2021/12/13 03:55:52;;;;;;;;;;;23.10;30.30;;;;;;5169678;27;19922;-56
2021/12/13 03:58:18;;;;;;;;;;;23.20;30.20;;;;;;5145380;27;19970;-56
2021/12/13 04:00:46;;;;;;;;;;;23.10;30.20;;;;;;5164005;27;19928;-58
2021/12/13 04:03:13;;;;;;;;;;;23.10;30.30;;;;;;5169930;27;20364;-57
2021/12/13 04:05:39;;;;;;;;;;;23.10;30.30;;;;;;5164288;27;20370;-54
2021/12/13 04:08:06;;;;;;;;;;;23.10;30.10;;;;;;5164351;27;19975;-55
2021/12/13 04:10:33;;;;;;;;;;;23.10;30.20;;;;;;5169585;27;19929;-56
2021/12/13 04:13:00;;;;;;;;;;;23.10;30.30;;;;;;5163630;27;19922;-52
2021/12/13 04:15:32;;;;;;;;;;;23.10;30.20;;;;;;5166170;27;20279;-58
2021/12/13 04:18:02;;;;;;;;;;;23.10;30.30;;;;;;5168900;27;20016;-53
2021/12/13 04:20:30;;;;;;;;;;;23.10;30.30;;;;;;5164168;27;20013;-58
2021/12/13 04:22:57;;;;;;;;;;;23.00;30.40;;;;;;5169172;27;19922;-54
2021/12/13 04:25:24;;;;;;;;;;;23.10;30.30;;;;;;5163980;27;20296;-55
2021/12/13 04:28:09;;;;;;;;;;;23.10;30.20;;;;;;5163367;27;20408;-55
2021/12/13 04:30:36;;;;;;;;;;;23.10;30.20;;;;;;5169208;27;20347;-54
2021/12/13 04:33:07;;;;;;;;;;;23.20;30.00;;;;;;5163284;27;19922;-54
2021/12/13 04:35:33;;;;;;;;;;;23.20;30.00;;;;;;5162927;27;19928;-55
2021/12/13 04:37:59;;;;;;;;;;;23.20;30.10;;;;;;5169090;27;20374;-57
2021/12/13 04:40:29;;;;;;;;;;;23.00;30.30;;;;;;5163844;27;19923;-54
2021/12/13 04:43:01;;;;;;;;;;;22.90;30.40;;;;;;5163374;27;20425;-56
2021/12/13 04:45:26;;;;;;;;;;;23.00;30.20;;;;;;5168788;27;19922;-58
2021/12/13 04:47:52;;;;;;;;;;;23.10;30.10;;;;;;5163370;27;19923;-55
2021/12/13 04:50:19;;;;;;;;;;;23.20;30.00;;;;;;5164658;27;20281;-58
2021/12/13 04:52:45;;;;;;;;;;;23.10;30.00;;;;;;5167780;27;20009;-53
2021/12/13 04:55:16;;;;;;;;;;;23.10;30.00;;;;;;5162750;27;19970;-55
2021/12/13 04:57:42;;;;;;;;;;;23.20;30.00;;;;;;5168592;27;19926;-57
2021/12/13 05:00:10;;;;;;;;;;;23.10;30.00;;;;;;5162926;27;20441;-57
2021/12/13 05:02:36;;;;;;;;;;;23.20;30.00;;;;;;5163088;27;20274;-55
2021/12/13 05:05:02;;;;;;;;;;;23.10;29.90;;;;;;5168460;27;20076;-56
2021/12/13 05:07:28;;;;;;;;;;;23.10;30.00;;;;;;5163109;27;19926;-56
2021/12/13 05:09:54;;;;;;;;;;;23.10;29.90;;;;;;5162808;27;19937;-56
2021/12/13 05:12:22;;;;;;;;;;;23.00;30.00;;;;;;5167928;27;19971;-55
2021/12/13 05:14:48;;;;;;;;;;;23.00;30.10;;;;;;5162725;27;20009;-56
2021/12/13 05:17:14;;;;;;;;;;;23.10;30.20;;;;;;5168536;27;19923;-56
2021/12/13 05:19:41;;;;;;;;;;;23.10;30.40;;;;;;5163391;27;19945;-54
2021/12/13 05:22:08;;;;;;;;;;;23.10;30.50;;;;;;5162841;27;19926;-55
2021/12/13 05:24:35;;;;;;;;;;;23.20;30.50;;;;;;5168192;27;19922;-54
2021/12/13 05:27:07;;;;;;;;;;;23.20;30.50;;;;;;5162832;27;19922;-61
2021/12/13 05:29:34;;;;;;;;;;;23.00;30.70;;;;;;5162640;27;20766;-56
2021/12/13 05:32:03;;;;;;;;;;;22.90;31.00;;;;;;5167607;27;20043;-57
2021/12/13 05:34:33;;;;;;;;;;;23.00;30.90;;;;;;5162889;27;19931;-56
2021/12/13 05:36:59;;;;;;;;;;;23.00;30.90;;;;;;5162565;27;19923;-56
2021/12/13 05:39:26;;;;;;;;;;;23.00;30.90;;;;;;5167905;27;19923;-53
2021/12/13 05:41:56;;;;;;;;;;;23.00;31.00;;;;;;5162539;27;20378;-54
2021/12/13 05:44:26;;;;;;;;;;;23.00;31.00;;;;;;5167272;27;19934;-58
2021/12/13 05:46:52;;;;;;;;;;;23.00;31.00;;;;;;5165271;27;19969;-53
2021/12/13 05:49:25;;;;;;;;;;;23.00;30.90;;;;;;5161936;27;20331;-54
2021/12/13 05:51:55;;;;;;;;;;;23.00;30.90;;;;;;5167838;27;20001;-53
2021/12/13 05:54:22;;;;;;;;;;;23.10;30.90;;;;;;5162598;27;19926;-54
2021/12/13 05:57:01;;;;;;;;;;;23.10;30.90;;;;;;5161884;27;19923;-52
2021/12/13 05:59:28;;;;;;;;;;;23.10;31.00;;;;;;5149130;27;19926;-56
2021/12/13 06:01:59;;;;;;;;;;;23.00;31.00;;;;;;5161920;27;19929;-55
2021/12/13 06:04:31;;;;;;;;;;;23.10;30.90;;;;;;5162005;27;19923;-58
2021/12/13 06:06:57;;;;;;;;;;;23.00;31.00;;;;;;5167292;27;19931;-52
2021/12/13 06:09:43;;;;;;;;;;;23.10;31.00;;;;;;5161663;27;19931;-53
2021/12/13 06:12:10;;;;;;;;;;;23.20;30.90;;;;;;5163347;27;19929;-58
2021/12/13 06:14:35;;;;;;;;;;;23.10;31.00;;;;;;5168349;27;20340;-54
2021/12/13 06:17:06;;;;;;;;;;;23.10;31.00;;;;;;5144584;27;19923;-56
2021/12/13 06:19:37;;;;;;;;;;;23.00;31.10;;;;;;5144211;27;20172;-55
2021/12/13 06:22:06;;;;;;;;;;;23.10;31.00;;;;;;5168150;27;20017;-52
2021/12/13 06:24:33;;;;;;;;;;;23.10;30.90;;;;;;5162606;27;19937;-54
2021/12/13 06:27:05;;;;;;;;;;;23.20;30.90;;;;;;5165769;27;20009;-57
2021/12/13 06:29:49;;;;;;;;;;;23.10;30.90;;;;;;5167383;27;20009;-56
2021/12/13 06:32:21;;;;;;;;;;;23.20;30.80;;;;;;5162768;27;19926;-56
2021/12/13 06:34:47;;;;;;;;;;;23.10;30.90;;;;;;5165303;27;20053;-59
2021/12/13 06:37:12;;;;;;;;;;;23.10;30.90;;;;;;5147365;27;19929;-57
2021/12/13 06:39:38;;;;;;;;;;;23.10;30.90;;;;;;5162677;27;19979;-55
2021/12/13 06:42:04;;;;;;;;;;;23.10;31.10;;;;;;5167867;27;19922;-55
2021/12/13 06:44:34;;;;;;;;;;;23.10;30.90;;;;;;5162354;27;19923;-55
2021/12/13 06:47:01;;;;;;;;;;;23.20;30.90;;;;;;5162416;27;19922;-54
2021/12/13 06:49:34;;;;;;;;;;;23.10;30.90;;;;;;5168573;27;19926;-57
2021/12/13 06:52:06;;;;;;;;;;;23.00;31.20;;;;;;5163595;27;20021;-54
2021/12/13 06:54:48;;;;;;;;;;;23.10;31.00;;;;;;5166525;27;20627;-55
2021/12/13 06:57:15;;;;;;;;;;;23.10;31.00;;;;;;5171781;27;19923;-52
2021/12/13 06:59:51;;;;;;;;;;;23.20;30.90;;;;;;5147640;27;19923;-58
2021/12/13 07:02:18;;;;;;;;;;;23.20;30.90;;;;;;5166055;27;20673;-57
2021/12/13 07:04:48;;;;;;;;;;;23.10;31.00;;;;;;5171208;27;19934;-54
2021/12/13 07:07:14;;;;;;;;;;;23.10;30.90;;;;;;5166417;27;19929;-55
2021/12/13 07:09:40;;;;;;;;;;;23.30;30.80;;;;;;5167144;27;19923;-58
2021/12/13 07:12:14;;;;;;;;;;;23.20;30.70;;;;;;5135144;27;19930;-60
2021/12/13 07:14:39;;;;;;;;;;;23.20;30.70;;;;;;5165163;27;19931;-56
2021/12/13 07:17:13;;;;;;;;;;;23.10;30.60;;;;;;5151951;27;20399;-53
2021/12/13 07:19:39;;;;;;;;;;;23.10;30.60;;;;;;5165141;27;19927;-56
2021/12/13 07:22:05;;;;;;;;;;;23.00;30.70;;;;;;5164548;27;19977;-56
2021/12/13 07:24:33;;;;;;;;;;;23.10;30.70;;;;;;5170529;27;20297;-54
2021/12/13 07:27:09;;;;;;;;;;;23.10;30.60;;;;;;5165343;27;20344;-59
2021/12/13 07:29:54;;;;;;;;;;;23.10;30.60;;;;;;5146309;27;19957;-56
2021/12/13 07:32:31;;;;;;;;;;;23.00;30.80;;;;;;5170445;27;20441;-53
2021/12/13 07:35:02;;;;;;;;;;;23.10;30.70;;;;;;5164872;27;19931;-53
2021/12/13 07:37:40;;;;;;;;;;;23.20;30.50;;;;;;5164481;27;19922;-56
2021/12/13 07:40:25;;;;;;;;;;;23.10;30.70;;;;;;5169907;27;20487;-59
2021/12/13 07:43:04;;;;;;;;;;;23.00;30.90;;;;;;5164643;27;20274;-58
2021/12/13 07:45:32;;;;;;;;;;;23.10;30.90;;;;;;5164864;27;19926;-57
2021/12/13 07:47:58;;;;;;;;;;;23.10;31.00;;;;;;5169595;27;19946;-57
2021/12/13 07:50:24;;;;;;;;;;;23.20;30.90;;;;;;5145881;27;19926;-54
2021/12/13 07:52:54;;;;;;;;;;;23.20;30.90;;;;;;5164401;27;20239;-59
2021/12/13 07:55:22;;;;;;;;;;;23.00;31.20;;;;;;5170102;27;20026;-57
2021/12/13 07:57:48;;;;;;;;;;;22.90;31.40;;;;;;5164239;27;19937;-56
2021/12/13 08:00:16;;;;;;;;;;;23.00;31.30;;;;;;5164280;27;19923;-58
2021/12/13 08:02:51;;;;;;;;;;;22.90;31.50;;;;;;5151177;27;19933;-55
2021/12/13 08:05:20;;;;;;;;;;;23.00;31.50;;;;;;5164333;27;20392;-58
2021/12/13 08:07:49;;;;;;;;;;;22.90;31.50;;;;;;5146130;27;19935;-59
2021/12/13 08:10:19;;;;;;;;;;;23.10;31.30;;;;;;5169548;27;19931;-55
2021/12/13 08:12:47;;;;;;;;;;;23.00;31.40;;;;;;5163961;27;19922;-52
2021/12/13 08:15:19;;;;;;;;;;;23.10;31.30;;;;;;5134797;27;19927;-54
2021/12/13 08:17:49;;;;;;;;;;;23.20;31.20;;;;;;5164299;27;19931;-58
2021/12/13 08:20:23;;;;;;;;;;;23.20;31.10;;;;;;5163947;27;20013;-54
2021/12/13 08:22:50;;;;;;;;;;;23.10;31.10;;;;;;5169531;27;19922;-61
2021/12/13 08:25:20;;;;;;;;;;;23.10;31.20;;;;;;5163837;27;20009;-62
2021/12/13 08:27:54;;;;;;;;;;;23.10;31.20;;;;;;5163718;27;19937;-58
2021/12/13 08:30:21;;;;;;;;;;;23.00;31.30;;;;;;5169118;27;19947;-57
2021/12/13 08:32:57;;;;;;;;;;;22.90;31.40;;;;;;5163636;27;20029;-60
2021/12/13 08:35:23;;;;;;;;;;;23.00;31.30;;;;;;5163354;27;19922;-57
2021/12/13 08:37:53;;;;;;;;;;;23.00;31.30;;;;;;5168547;27;19929;-54
2021/12/13 08:40:20;;;;;;;;;;;23.00;31.30;;;;;;5163884;27;19923;-57
2021/12/13 08:42:46;;;;;;;;;;;23.00;31.30;;;;;;5163567;27;20503;-57
2021/12/13 08:45:21;;;;;;;;;;;23.00;31.30;;;;;;5169041;27;19923;-58
2021/12/13 08:47:48;;;;;;;;;;;23.00;31.40;;;;;;5163315;27;20010;-56
2021/12/13 08:50:16;;;;;;;;;;;23.10;31.30;;;;;;5166224;27;19955;-58
2021/12/13 08:52:43;;;;;;;;;;;23.00;31.50;;;;;;5181621;27;20690;-63
2021/12/13 08:55:12;;;;;;;;;;;23.00;31.50;;;;;;5176976;27;20056;-54
2021/12/13 08:57:40;;;;;;;;;;;22.90;31.60;;;;;;5168994;27;19923;-57
2021/12/13 09:00:27;;;;;;;;;;;23.00;31.50;;;;;;5163089;27;19923;-55
2021/12/13 09:02:54;;;;;;;;;;;23.20;31.30;;;;;;5141790;27;19933;-54
2021/12/13 09:05:26;;;;;;;;;;;23.00;31.60;;;;;;5168552;27;19933;-54
2021/12/13 09:07:56;;;;;;;;;;;23.00;31.50;;;;;;5163154;27;19922;-62
2021/12/13 09:10:22;;;;;;;;;;;23.10;31.50;;;;;;5162595;27;20117;-54
2021/12/13 09:12:55;;;;;;;;;;;23.00;31.70;;;;;;5167715;27;19966;-57
2021/12/13 09:15:22;;;;;;;;;;;23.20;31.50;;;;;;5140311;27;19982;-59
2021/12/13 09:17:49;;;;;;;;;;;22.90;31.80;;;;;;5163067;27;20289;-58
2021/12/13 09:20:18;;;;;;;;;;;23.00;31.80;;;;;;5168266;27;20400;-61
2021/12/13 09:22:45;;;;;;;;;;;22.90;31.90;;;;;;5162876;27;19927;-57
2021/12/13 09:25:12;;;;;;;;;;;23.00;31.90;;;;;;5163283;27;20547;-57
2021/12/13 09:27:41;;;;;;;;;;;23.10;31.80;;;;;;5168259;27;19931;-60
2021/12/13 09:30:07;;;;;;;;;;;22.80;32.40;;;;;;5162603;27;19938;-57
2021/12/13 09:32:35;;;;;;;;;;;22.80;32.50;;;;;;5167560;27;19934;-55
2021/12/13 09:35:19;;;;;;;;;;;22.80;32.30;;;;;;5163015;27;19923;-57
2021/12/13 09:37:45;;;;;;;;;;;23.00;32.10;;;;;;5162685;27;19927;-56
2021/12/13 09:40:10;;;;;;;;;;;23.00;32.10;;;;;;5168137;27;19934;-57
2021/12/13 09:42:44;;;;;;;;;;;23.00;32.20;;;;;;5163032;27;19923;-63
2021/12/13 09:45:12;;;;;;;;;;;22.90;32.50;;;;;;5162270;27;19934;-57
2021/12/13 09:47:39;;;;;;;;;;;23.00;32.60;;;;;;5167637;27;19923;-59
2021/12/13 09:50:07;;;;;;;;;;;23.00;32.40;;;;;;5162334;27;19928;-52
2021/12/13 09:52:37;;;;;;;;;;;22.90;32.70;;;;;;5162726;27;19922;-56
2021/12/13 09:55:06;;;;;;;;;;;23.10;32.60;;;;;;5168026;27;19953;-55
2021/12/13 09:57:34;;;;;;;;;;;23.00;32.60;;;;;;5162607;27;19923;-58
2021/12/13 10:00:00;;;;;;;;;;;23.00;32.60;;;;;;5163622;27;20021;-58
2021/12/13 10:02:33;;;;;;;;;;;23.10;32.50;;;;;;5167099;27;19923;-62
2021/12/13 10:04:59;;;;;;;;;;;23.00;32.70;;;;;;5162258;27;19933;-57
2021/12/13 10:07:28;;;;;;;;;;;22.80;33.20;;;;;;5132875;27;20432;-56
2021/12/13 10:09:55;;;;;;;;;;;22.80;33.10;;;;;;5161982;27;19923;-57
2021/12/13 10:12:27;;;;;;;;;;;23.00;32.80;;;;;;5136060;27;19923;-57
2021/12/13 10:14:58;;;;;;;;;;;23.10;32.70;;;;;;5167816;27;19933;-61
2021/12/13 10:17:25;;;;;;;;;;;23.10;32.80;;;;;;5162579;27;20373;-58
2021/12/13 10:19:53;;;;;;;;;;;22.80;33.30;;;;;;5162060;27;20006;-54
2021/12/13 10:22:20;;;;;;;;;;;23.00;33.10;;;;;;5167332;27;20453;-59
2021/12/13 10:24:56;;;;;;;;;;;23.00;32.90;;;;;;5162143;27;19949;-59
2021/12/13 10:27:22;;;;;;;;;;;22.90;33.20;;;;;;5163630;27;19923;-56
2021/12/13 10:29:49;;;;;;;;;;;23.20;32.90;;;;;;5172407;27;19933;-63
2021/12/13 10:32:24;;;;;;;;;;;23.00;33.10;;;;;;5147393;27;19926;-56
2021/12/13 10:34:51;;;;;;;;;;;23.00;33.10;;;;;;5167654;27;19926;-58
2021/12/13 10:37:19;;;;;;;;;;;23.20;32.90;;;;;;5171048;27;19975;-56
2021/12/13 10:39:49;;;;;;;;;;;23.10;33.00;;;;;;5166629;27;20314;-57
2021/12/13 10:42:16;;;;;;;;;;;23.00;33.30;;;;;;5170868;27;19925;-53
2021/12/13 10:44:45;;;;;;;;;;;23.00;33.30;;;;;;5165562;27;19929;-59
2021/12/13 10:47:13;;;;;;;;;;;23.00;33.30;;;;;;5165712;27;19935;-57
2021/12/13 10:49:39;;;;;;;;;;;23.00;33.30;;;;;;5171634;27;20070;-58
2021/12/13 10:52:09;;;;;;;;;;;23.10;33.20;;;;;;5147328;27;19966;-58
2021/12/13 10:54:37;;;;;;;;;;;22.90;33.60;;;;;;5165695;27;19930;-59
2021/12/13 10:57:05;;;;;;;;;;;22.90;33.70;;;;;;5170877;27;19923;-57
2021/12/13 10:59:31;;;;;;;;;;;23.00;33.50;;;;;;5165539;27;20354;-61
2021/12/13 11:01:59;;;;;;;;;;;22.90;33.70;;;;;;5147399;27;20021;-56
2021/12/13 11:04:27;;;;;;;;;;;23.00;33.60;;;;;;5170460;27;19922;-56
2021/12/13 11:06:52;;;;;;;;;;;23.00;33.60;;;;;;5181860;27;20058;-58
2021/12/13 11:09:20;;;;;;;;;;;23.00;33.60;;;;;;5170949;27;20327;-57
2021/12/13 11:11:47;;;;;;;;;;;23.10;33.50;;;;;;5165767;27;19933;-60
2021/12/13 11:14:14;;;;;;;;;;;23.10;33.60;;;;;;5165212;27;20370;-60
2021/12/13 11:16:40;;;;;;;;;;;23.10;33.60;;;;;;5170393;27;19926;-57
2021/12/13 11:19:07;;;;;;;;;;;22.80;34.20;;;;;;5164880;27;20014;-53
2021/12/13 11:21:34;;;;;;;;;;;23.00;33.90;;;;;;5164559;27;19930;-61
2021/12/13 11:24:00;;;;;;;;;;;23.00;33.90;;;;;;5151656;27;20465;-57
2021/12/13 11:26:28;;;;;;;;;;;23.00;34.00;;;;;;5165486;27;19927;-59
2021/12/13 11:28:53;;;;;;;;;;;23.10;33.80;;;;;;5170094;27;19933;-60
2021/12/13 11:31:28;;;;;;;;;;;23.00;34.00;;;;;;5165975;27;20358;-56
2021/12/13 11:34:01;;;;;;;;;;;23.00;34.10;;;;;;5165093;27;19927;-62
2021/12/13 11:36:42;;;;;;;;;;;23.00;34.30;;;;;;5170258;27;19953;-59
2021/12/13 11:39:20;;;;;;;;;;;22.70;34.90;;;;;;5148003;27;19929;-57
2021/12/13 11:41:49;;;;;;;;;;;22.90;34.60;;;;;;5164334;27;19922;-60
2021/12/13 11:44:25;;;;;;;;;;;23.00;34.30;;;;;;5170355;27;19986;-59
2021/12/13 11:47:09;;;;;;;;;;;23.00;34.40;;;;;;5166588;27;20025;-59
2021/12/13 11:49:59;;;;;;;;;;;23.10;34.40;;;;;;5165145;27;19930;-58
2021/12/13 11:52:39;;;;;;;;;;;23.00;34.60;;;;;;5146129;27;20205;-57
2021/12/13 11:55:13;;;;;;;;;;;23.00;34.50;;;;;;5170130;27;20019;-59
2021/12/13 11:57:45;;;;;;;;;;;23.00;34.70;;;;;;5180343;27;19923;-58
2021/12/13 12:00:29;;;;;;;;;;;23.10;34.60;;;;;;5164242;27;19934;-60
2021/12/13 12:03:13;;;;;;;;;;;22.90;34.90;;;;;;5170184;27;20013;-56
2021/12/13 12:05:58;;;;;;;;;;;22.90;34.90;;;;;;5164405;27;19957;-57
2021/12/13 12:08:35;;;;;;;;;;;23.00;34.70;;;;;;5164794;27;19927;-63
2021/12/13 12:11:14;;;;;;;;;;;23.00;34.80;;;;;;5169673;27;19922;-57
2021/12/13 12:14:03;;;;;;;;;;;23.00;34.80;;;;;;5164281;27;19926;-59
2021/12/13 12:16:32;;;;;;;;;;;23.00;34.90;;;;;;5164103;27;19929;-62
2021/12/13 12:18:58;;;;;;;;;;;23.00;34.80;;;;;;5169278;27;19923;-56
2021/12/13 12:21:33;;;;;;;;;;;23.00;34.80;;;;;;5164301;27;19922;-60
2021/12/13 12:24:06;;;;;;;;;;;22.90;35.00;;;;;;5164461;27;20021;-56
2021/12/13 12:26:32;;;;;;;;;;;22.80;35.10;;;;;;5169494;27;20412;-57
2021/12/13 12:28:59;;;;;;;;;;;23.10;34.80;;;;;;5163993;27;20017;-58
2021/12/13 12:31:31;;;;;;;;;;;22.90;35.00;;;;;;5163584;27;19930;-55
2021/12/13 12:33:57;;;;;;;;;;;23.00;34.80;;;;;;5169007;27;19923;-59
2021/12/13 12:36:23;;;;;;;;;;;22.90;35.00;;;;;;5162754;27;19958;-57
2021/12/13 12:39:18;;;;;;;;;;;23.00;35.00;;;;;;5163745;27;20327;-59
2021/12/13 12:41:45;;;;;;;;;;;23.10;34.80;;;;;;5067726;27;20466;-59
2021/12/13 12:44:22;;;;;;;;;;;22.70;35.70;;;;;;5163226;27;20025;-58
2021/12/13 12:46:47;;;;;;;;;;;22.90;35.20;;;;;;5163354;27;19931;-56
2021/12/13 12:49:20;;;;;;;;;;;23.10;35.00;;;;;;5167616;27;19975;-60
2021/12/13 12:51:46;;;;;;;;;;;23.10;34.80;;;;;;5163580;27;19923;-58
2021/12/13 12:54:13;;;;;;;;;;;23.00;35.00;;;;;;5164255;27;19968;-57
2021/12/13 12:56:39;;;;;;;;;;;23.00;35.00;;;;;;5167767;27;19968;-60
2021/12/13 12:59:12;;;;;;;;;;;23.00;35.00;;;;;;5163436;27;20012;-58
2021/12/13 13:01:42;;;;;;;;;;;22.60;35.90;;;;;;5168332;27;19931;-56
2021/12/13 13:04:11;;;;;;;;;;;22.80;35.40;;;;;;5162968;27;19970;-57
2021/12/13 13:06:37;;;;;;;;;;;23.00;35.10;;;;;;5163412;27;19936;-57
2021/12/13 13:09:07;;;;;;;;;;;22.90;35.30;;;;;;5149642;27;19965;-55
2021/12/13 13:11:35;;;;;;;;;;;23.10;35.00;;;;;;5162910;27;20495;-60
2021/12/13 13:14:13;;;;;;;;;;;23.00;35.00;;;;;;5162674;27;19923;-55
2021/12/13 13:16:46;;;;;;;;;;;23.00;35.10;;;;;;5168572;27;19923;-58
2021/12/13 13:19:22;;;;;;;;;;;23.00;35.20;;;;;;5144106;27;19930;-57
2021/12/13 13:21:48;;;;;;;;;;;23.10;34.90;;;;;;5163219;27;19922;-57
2021/12/13 13:24:14;;;;;;;;;;;22.90;35.30;;;;;;5168141;27;20412;-54
2021/12/13 13:26:41;;;;;;;;;;;23.00;35.00;;;;;;5162380;27;19933;-57
2021/12/13 13:29:07;;;;;;;;;;;23.10;34.90;;;;;;5162439;27;19937;-57
2021/12/13 13:31:38;;;;;;;;;;;23.00;35.10;;;;;;5167498;27;20025;-56
2021/12/13 13:34:05;;;;;;;;;;;23.00;35.00;;;;;;5163002;27;19923;-60
2021/12/13 13:36:33;;;;;;;;;;;23.00;35.00;;;;;;5168083;27;19923;-57
2021/12/13 13:39:08;;;;;;;;;;;23.00;34.90;;;;;;5162643;27;20373;-57
2021/12/13 13:41:34;;;;;;;;;;;22.80;35.20;;;;;;5162176;27;19990;-54
2021/12/13 13:44:03;;;;;;;;;;;23.00;34.90;;;;;;5167779;27;19927;-56
2021/12/13 13:46:29;;;;;;;;;;;23.10;34.80;;;;;;5143824;27;20276;-56
2021/12/13 13:48:55;;;;;;;;;;;23.00;34.90;;;;;;5162024;27;19922;-59
2021/12/13 13:51:20;;;;;;;;;;;23.00;34.80;;;;;;5167309;27;19922;-59
2021/12/13 13:53:49;;;;;;;;;;;23.00;34.90;;;;;;5162459;27;19931;-57
2021/12/13 13:56:15;;;;;;;;;;;22.80;35.20;;;;;;5162230;27;20383;-55
2021/12/13 13:58:42;;;;;;;;;;;23.00;34.90;;;;;;5168031;27;19926;-62
2021/12/13 14:01:14;;;;;;;;;;;23.00;34.80;;;;;;5165352;27;20445;-54
2021/12/13 14:03:41;;;;;;;;;;;23.00;34.90;;;;;;5175302;27;19971;-60
2021/12/13 14:06:07;;;;;;;;;;;22.90;35.10;;;;;;5169009;27;20452;-57
2021/12/13 14:08:33;;;;;;;;;;;22.90;35.00;;;;;;5169498;27;19934;-59
2021/12/13 14:10:59;;;;;;;;;;;22.80;35.20;;;;;;5174617;27;19975;-59
2021/12/13 14:13:25;;;;;;;;;;;23.00;35.00;;;;;;5168891;27;20021;-58
2021/12/13 14:15:52;;;;;;;;;;;23.00;34.80;;;;;;5169551;27;19930;-59
2021/12/13 14:18:19;;;;;;;;;;;22.90;35.10;;;;;;5150682;27;20333;-58
2021/12/13 14:20:46;;;;;;;;;;;23.00;35.00;;;;;;5168582;27;19978;-58
2021/12/13 14:23:11;;;;;;;;;;;23.10;34.80;;;;;;5172440;27;19927;-58
2021/12/13 14:25:38;;;;;;;;;;;22.90;35.10;;;;;;5171713;27;20323;-57
2021/12/13 14:28:04;;;;;;;;;;;23.00;34.90;;;;;;5168713;27;20070;-61
2021/12/13 14:30:32;;;;;;;;;;;23.00;35.00;;;;;;5174569;27;20373;-57
2021/12/13 14:32:57;;;;;;;;;;;22.90;35.00;;;;;;5168879;27;20021;-56
2021/12/13 14:35:25;;;;;;;;;;;23.10;34.80;;;;;;5169471;27;19923;-59